Time;durP1;ratioP1;P1;durP2;ratioP2;P2;SDS_P1;SDS_P2;PMS_P1;PMS_P2;Temp;Humidity;BMP_temperature;BMP_pressure;BME280_temperature;BME280_humidity;BME280_pressure;Samples;Min_cycle;Max_cycle;Signal;HPM_P1;HPM_P2
2021/07/03 00:00:20;;;;;;;1999.90;999.90;;;;;;;18.41;76.15;101215.41;15739986;28;20413;-67
2021/07/03 00:07:53;;;;;;;1999.90;999.90;;;;;;;18.44;75.89;101218.31;15722873;28;20040;-67
2021/07/03 00:15:26;;;;;;;1999.90;999.90;;;;;;;18.31;76.65;101221.66;15741056;28;20044;-67
2021/07/03 00:22:59;;;;;;;1999.90;999.90;;;;;;;18.27;77.29;101212.31;15740847;28;20048;-66
2021/07/03 00:30:32;;;;;;;1999.90;999.90;;;;;;;18.31;77.02;101216.03;15740110;28;20059;-67
2021/07/03 00:38:05;;;;;;;1999.90;999.90;;;;;;;18.28;77.46;101214.78;15740018;28;20053;-67
2021/07/03 00:45:38;;;;;;;1999.90;999.90;;;;;;;18.22;77.39;101215.44;15740052;28;20050;-67
2021/07/03 00:53:12;;;;;;;1999.90;999.90;;;;;;;18.35;77.40;101220.56;15738532;28;20112;-67
2021/07/03 01:00:46;;;;;;;1999.90;999.90;;;;;;;18.31;77.47;101218.84;15738130;28;20044;-67
2021/07/03 01:08:19;;;;;;;1999.90;999.90;;;;;;;18.23;77.31;101226.34;15737570;28;20047;-67
2021/07/03 01:15:52;;;;;;;1999.90;999.90;;;;;;;18.13;77.62;101216.50;15720784;28;20076;-67
2021/07/03 01:23:26;;;;;;;1999.90;999.90;;;;;;;18.17;77.40;101206.09;15748688;28;20498;-67
2021/07/03 01:31:02;;;;;;;1999.90;999.90;;;;;;;18.11;78.19;101215.22;15749409;28;20044;-67
2021/07/03 01:38:38;;;;;;;1999.90;999.90;;;;;;;18.00;78.00;101219.84;15747158;28;20176;-66
2021/07/03 01:54:12;;;;;;;1999.90;999.90;;;;;;;17.92;78.29;101204.75;15747034;28;20044;-67
2021/07/03 02:01:50;;;;;;;1999.90;999.90;;;;;;;17.84;78.83;101200.16;15730355;28;20413;-67
2021/07/03 02:09:27;;;;;;;1999.90;999.90;;;;;;;17.79;78.50;101198.44;15746183;28;20044;-66
2021/07/03 02:17:07;;;;;;;1999.90;999.90;;;;;;;17.76;78.47;101198.34;15745982;28;20058;-66
2021/07/03 02:24:41;;;;;;;1999.90;999.90;;;;;;;17.62;78.89;101192.38;15745399;28;20064;-66
2021/07/03 02:32:14;;;;;;;1999.90;999.90;;;;;;;17.62;78.91;101198.84;15745519;28;20071;-67
2021/07/03 02:39:48;;;;;;;1999.90;999.90;;;;;;;17.59;78.42;101196.75;15744667;28;20037;-65
2021/07/03 02:47:24;;;;;;;1999.90;999.90;;;;;;;17.48;78.75;101196.50;15728243;28;20075;-67
2021/07/03 02:54:58;;;;;;;1999.90;999.90;;;;;;;17.51;78.49;101189.31;15744635;28;20119;-67
2021/07/03 03:02:31;;;;;;;1999.90;999.90;;;;;;;17.45;78.67;101188.78;15743869;28;20131;-67
2021/07/03 03:10:07;;;;;;;1999.90;999.90;;;;;;;17.42;79.13;101191.53;15744102;28;20056;-67
2021/07/03 03:17:43;;;;;;;1999.90;999.90;;;;;;;17.26;79.73;101189.56;15743561;28;20041;-68
2021/07/03 03:25:17;;;;;;;1999.90;999.90;;;;;;;17.25;79.08;101189.94;15742372;28;20536;-67
2021/07/03 03:32:50;;;;;;;1999.90;999.90;;;;;;;17.28;79.77;101177.91;15741425;28;20052;-67
2021/07/03 03:40:26;;;;;;;1999.90;999.90;;;;;;;17.40;79.40;101180.59;15740630;28;20036;-67
2021/07/03 03:48:00;;;;;;;1999.90;999.90;;;;;;;17.37;79.95;101184.16;15741575;28;20052;-67
2021/07/03 03:55:42;;;;;;;1999.90;999.90;;;;;;;17.52;79.34;101183.31;15744248;28;20036;-67
2021/07/03 04:03:16;;;;;;;1999.90;999.90;;;;;;;17.60;79.59;101184.25;15755779;28;20135;-67
2021/07/03 04:10:53;;;;;;;1999.90;999.90;;;;;;;17.76;79.78;101187.88;15725711;28;20060;-67
2021/07/03 04:18:26;;;;;;;1999.90;999.90;;;;;;;17.96;80.05;101187.91;15741533;28;20089;-67
2021/07/03 04:25:59;;;;;;;1999.90;999.90;;;;;;;18.17;79.20;101196.78;15740926;28;20045;-68
2021/07/03 04:33:34;;;;;;;1999.90;999.90;;;;;;;18.32;78.64;101195.06;15739348;28;20044;-67
2021/07/03 04:41:08;;;;;;;1999.90;999.90;;;;;;;18.61;77.33;101188.75;15740928;28;20051;-68
2021/07/03 04:48:41;;;;;;;1999.90;999.90;;;;;;;18.79;76.12;101188.28;15740727;28;20098;-67
2021/07/03 04:56:17;;;;;;;1999.90;999.90;;;;;;;18.89;76.59;101199.78;15750097;28;20051;-66
2021/07/03 05:03:49;;;;;;;1999.90;999.90;;;;;;;19.06;76.09;101192.75;15752569;28;20059;-66
2021/07/03 05:11:23;;;;;;;1999.90;999.90;;;;;;;19.59;74.45;101204.94;15752649;28;20582;-65
2021/07/03 05:18:55;;;;;;;1999.90;999.90;;;;;;;19.82;73.80;101195.53;15750953;28;20106;-66
2021/07/03 05:26:29;;;;;;;1999.90;999.90;;;;;;;19.89;73.01;101198.44;15751245;28;20047;-66
2021/07/03 05:34:01;;;;;;;1999.90;999.90;;;;;;;20.11;71.16;101199.50;15750257;28;20075;-66
2021/07/03 05:41:35;;;;;;;1999.90;999.90;;;;;;;20.18;71.13;101208.09;15749819;28;20456;-65
2021/07/03 05:49:07;;;;;;;1999.90;999.90;;;;;;;20.50;69.69;101204.84;15750015;28;20117;-66
2021/07/03 05:56:41;;;;;;;1999.90;999.90;;;;;;;21.31;68.16;101207.63;15748765;28;20033;-66
2021/07/03 06:04:15;;;;;;;1999.90;999.90;;;;;;;21.40;67.62;101199.56;15731889;28;20452;-67
2021/07/03 06:11:51;;;;;;;1999.90;999.90;;;;;;;21.62;66.12;101209.03;15747937;28;20037;-66
2021/07/03 06:19:25;;;;;;;1999.90;999.90;;;;;;;21.53;66.06;101219.94;15746919;28;20452;-66
2021/07/03 06:26:58;;;;;;;1999.90;999.90;;;;;;;21.93;65.83;101209.59;15748132;28;20041;-67
2021/07/03 06:34:31;;;;;;;1999.90;999.90;;;;;;;22.67;65.38;101203.34;15745626;28;20088;-67
2021/07/03 06:42:05;;;;;;;1999.90;999.90;;;;;;;23.11;62.47;101199.31;15746311;28;20052;-67
2021/07/03 06:49:44;;;;;;;1999.90;999.90;;;;;;;23.67;61.80;101207.00;15746415;28;20044;-66
2021/07/03 06:57:18;;;;;;;1999.90;999.90;;;;;;;23.78;61.18;101204.94;15746026;28;20049;-66
2021/07/03 07:04:57;;;;;;;1999.90;999.90;;;;;;;23.59;60.05;101211.09;15746728;28;20094;-65
2021/07/03 07:12:34;;;;;;;1999.90;999.90;;;;;;;22.95;61.54;101209.09;15747155;28;20078;-67
2021/07/03 07:20:07;;;;;;;1999.90;999.90;;;;;;;22.85;61.79;101211.94;15749245;28;20094;-66
2021/07/03 07:27:41;;;;;;;1999.90;999.90;;;;;;;23.38;60.25;101209.06;15744348;28;20041;-66
2021/07/03 07:35:14;;;;;;;1999.90;999.90;;;;;;;24.29;56.62;101196.97;15744898;28;20045;-67
2021/07/03 07:42:48;;;;;;;1999.90;999.90;;;;;;;23.25;60.30;101187.94;15742309;28;20049;-66
2021/07/03 07:50:21;;;;;;;1999.90;999.90;;;;;;;23.83;57.72;101193.09;15726603;28;20040;-66
2021/07/03 07:57:54;;;;;;;1999.90;999.90;;;;;;;23.82;57.42;101190.66;15746749;28;20123;-67
2021/07/03 08:05:26;;;;;;;1999.90;999.90;;;;;;;23.94;57.27;101193.06;15730570;28;20045;-68
2021/07/03 08:13:01;;;;;;;1999.90;999.90;;;;;;;23.35;60.15;101187.13;15743102;28;20048;-68
2021/07/03 08:20:37;;;;;;;1999.90;999.90;;;;;;;23.85;56.79;101184.94;15741730;28;20123;-67
2021/07/03 08:28:11;;;;;;;1999.90;999.90;;;;;;;22.73;58.35;101185.47;15740298;28;20044;-67
2021/07/03 08:35:43;;;;;;;1999.90;999.90;;;;;;;24.13;57.33;101191.75;15740825;28;20508;-68
2021/07/03 08:43:17;;;;;;;1999.90;999.90;;;;;;;25.12;52.68;101180.94;15739016;28;20055;-65
2021/07/03 08:50:50;;;;;;;1999.90;999.90;;;;;;;23.89;54.71;101171.50;15737020;28;20394;-65
2021/07/03 08:58:24;;;;;;;;;;;;;;;23.55;56.67;101174.03;15738297;28;20052;-65
2021/07/03 09:05:58;;;;;;;1999.90;999.90;;;;;;;24.41;54.29;101156.59;15737626;28;19973;-66
2021/07/03 09:13:33;;;;;;;1999.90;999.90;;;;;;;25.02;51.74;101159.81;15739916;28;20542;-65
2021/07/03 09:21:07;;;;;;;1999.90;999.90;;;;;;;26.66;50.90;101160.66;15738186;28;20102;-68
2021/07/03 09:28:42;;;;;;;1999.90;999.90;;;;;;;27.06;46.49;101150.19;15737020;28;20497;-66
2021/07/03 09:36:22;;;;;;;1999.90;999.90;;;;;;;26.44;49.59;101131.56;15736550;28;20127;-67
2021/07/03 09:43:57;;;;;;;1999.90;999.90;;;;;;;26.55;45.94;101137.94;15782198;28;20515;-66
2021/07/03 09:51:32;;;;;;;1999.90;999.90;;;;;;;27.45;46.93;101128.59;15750035;28;20105;-66
2021/07/03 09:59:14;;;;;;;1999.90;999.90;;;;;;;26.98;44.82;101132.28;15749327;28;20072;-66
2021/07/03 10:06:57;;;;;;;1999.90;999.90;;;;;;;27.44;45.07;101136.38;15747329;28;20044;-66
2021/07/03 10:14:42;;;;;;;1999.90;999.90;;;;;;;27.81;43.03;101125.81;15729849;28;20045;-64
2021/07/03 10:22:20;;;;;;;1999.90;999.90;;;;;;;28.38;41.42;101111.03;15747460;28;20048;-66
2021/07/03 10:30:11;;;;;;;1999.90;999.90;;;;;;;27.15;44.39;101118.94;15779863;28;20487;-65
2021/07/03 10:37:44;;;;;;;1999.90;999.90;;;;;;;25.85;44.60;101112.78;15746478;28;20497;-67
2021/07/03 10:45:20;;;;;;;1999.90;999.90;;;;;;;27.36;42.55;101111.19;15745414;28;20413;-64
2021/07/03 10:52:55;;;;;;;1999.90;999.90;;;;;;;29.90;40.76;101104.47;15745015;28;20068;-65
2021/07/03 11:00:28;;;;;;;1999.90;999.90;;;;;;;31.10;39.13;101089.47;15744100;28;20390;-66
2021/07/03 11:08:10;;;;;;;1999.90;999.90;;;;;;;30.43;37.53;101085.56;15743884;28;20068;-65
2021/07/03 11:15:43;;;;;;;1999.90;999.90;;;;;;;29.17;37.88;101071.69;15744227;28;20040;-65
2021/07/03 11:23:19;;;;;;;1999.90;999.90;;;;;;;29.86;35.76;101072.94;15738403;28;20110;-66
2021/07/03 11:30:59;;;;;;;1999.90;999.90;;;;;;;30.72;36.55;101070.19;15739483;28;20050;-66
2021/07/03 11:38:32;;;;;;;1999.90;999.90;;;;;;;31.19;36.52;101060.72;15740876;28;20067;-66
2021/07/03 11:46:05;;;;;;;1999.90;999.90;;;;;;;31.75;34.92;101054.13;15742623;28;20075;-66
2021/07/03 11:53:38;;;;;;;1999.90;999.90;;;;;;;31.08;34.05;101057.44;15740779;28;20052;-66
2021/07/03 12:01:16;;;;;;;1999.90;999.90;;;;;;;30.52;35.26;101043.72;15741600;28;20048;-67
2021/07/03 12:08:50;;;;;;;1999.90;999.90;;;;;;;30.88;35.14;101032.59;15741998;28;20475;-66
2021/07/03 12:16:25;;;;;;;1999.90;999.90;;;;;;;32.38;33.49;101044.16;15740045;28;20072;-66
2021/07/03 12:23:59;;;;;;;1999.90;999.90;;;;;;;33.69;32.80;101031.69;15742269;28;20471;-66
2021/07/03 12:32:12;;;;;;;1999.90;999.90;;;;;;;31.92;33.09;101031.63;15676285;28;20060;-65
2021/07/03 12:39:46;;;;;;;1999.90;999.90;;;;;;;34.52;31.60;101016.91;15740189;28;20060;-66
2021/07/03 12:47:21;;;;;;;1999.90;999.90;;;;;;;33.71;29.75;101022.53;15739908;28;20465;-65
2021/07/03 12:54:56;;;;;;;1999.90;999.90;;;;;;;34.69;27.00;101018.03;15723435;28;20098;-66
2021/07/03 13:02:30;;;;;;;1999.90;999.90;;;;;;;33.55;30.04;100997.66;15741446;28;20140;-66
2021/07/03 13:10:02;;;;;;;1999.90;999.90;;;;;;;32.33;30.58;100996.50;15738155;28;20044;-67
2021/07/03 13:17:35;;;;;;;1999.90;999.90;;;;;;;30.20;34.81;100993.78;15749477;28;20067;-67
2021/07/03 13:25:09;;;;;;;1999.90;999.90;;;;;;;30.11;36.23;100985.06;15755700;28;20048;-65
2021/07/03 13:32:43;;;;;;;1999.90;999.90;;;;;;;29.99;36.89;100980.91;15749369;28;20408;-66
2021/07/03 13:40:15;;;;;;;1999.90;999.90;;;;;;;29.88;37.41;100971.81;15743714;28;20053;-66
2021/07/03 13:47:49;;;;;;;1999.90;999.90;;;;;;;29.88;37.62;100971.81;15748587;28;20094;-67
2021/07/03 13:55:21;;;;;;;1999.90;999.90;;;;;;;29.19;38.08;100962.88;15747952;28;20079;-68
2021/07/03 14:02:55;;;;;;;1999.90;999.90;;;;;;;28.14;39.30;100957.50;15749712;28;20455;-67
2021/07/03 14:10:27;;;;;;;1999.90;999.90;;;;;;;28.36;39.29;100947.13;15748478;28;20451;-67
2021/07/03 14:18:00;;;;;;;;;;;;;;;27.89;38.57;100947.44;15748644;28;20064;-67
2021/07/03 14:25:33;;;;;;;1999.90;999.90;;;;;;;28.24;38.40;100938.38;15748022;28;20343;-66
2021/07/03 14:33:06;;;;;;;1999.90;999.90;;;;;;;28.27;39.11;100938.31;15746769;28;20493;-66
2021/07/03 14:40:38;;;;;;;1999.90;999.90;;;;;;;28.06;38.16;100933.13;15745157;28;20517;-67
2021/07/03 14:48:12;;;;;;;;;;;;;;;28.03;39.72;100922.53;15745724;28;20485;-66
2021/07/03 14:55:44;;;;;;;1999.90;999.90;;;;;;;27.67;37.06;100925.47;15745805;28;19920;-66
2021/07/03 15:03:17;;;;;;;;;;;;;;;28.03;38.48;100920.47;15746617;28;20041;-66
2021/07/03 15:10:49;;;;;;;1999.90;999.90;;;;;;;27.22;38.54;100911.75;15747116;28;19926;-66
2021/07/03 15:18:23;;;;;;;1999.90;999.90;;;;;;;27.28;38.42;100904.25;15743196;28;20132;-66
2021/07/03 15:25:55;;;;;;;1999.90;999.90;;;;;;;27.64;38.54;100904.22;15743867;28;20052;-67
2021/07/03 15:33:29;;;;;;;;;;;;;;;27.82;39.13;100898.06;15742722;28;20102;-66
2021/07/03 15:41:04;;;;;;;1999.90;999.90;;;;;;;27.49;39.02;100894.34;15741711;28;19927;-67
2021/07/03 15:48:39;;;;;;;1999.90;999.90;;;;;;;27.53;39.11;100889.34;15735972;28;20098;-67
2021/07/03 15:56:13;;;;;;;1999.90;999.90;;;;;;;27.32;39.03;100880.00;15738888;28;20044;-67
2021/07/03 16:03:46;;;;;;;;;;;;;;;27.35;41.11;100872.56;15739862;28;20108;-66
2021/07/03 16:11:19;;;;;;;1999.90;999.90;;;;;;;27.01;41.54;100867.19;15741033;28;19924;-67
2021/07/03 16:18:52;;;;;;;1999.90;999.90;;;;;;;27.25;40.17;100859.31;15740893;28;20048;-64
2021/07/03 16:26:25;;;;;;;1999.90;999.90;;;;;;;27.12;40.12;100858.38;15738739;28;20041;-67
2021/07/03 16:33:58;;;;;;;1999.90;999.90;;;;;;;27.14;38.87;100850.97;15740778;28;20048;-68
2021/07/03 16:41:30;;;;;;;1999.90;999.90;;;;;;;26.74;38.55;100855.91;15740662;28;20517;-68
2021/07/03 16:49:04;;;;;;;1999.90;999.90;;;;;;;26.53;40.75;100854.28;15743492;28;20490;-68
2021/07/03 16:56:37;;;;;;;1999.90;999.90;;;;;;;26.33;41.90;100854.22;15752425;28;20421;-68
2021/07/03 17:04:11;;;;;;;1999.90;999.90;;;;;;;26.55;41.97;100865.28;15751139;28;20048;-68
2021/07/03 17:11:43;;;;;;;1999.90;999.90;;;;;;;26.12;41.76;100858.31;15753321;28;20045;-68
2021/07/03 17:19:16;;;;;;;1999.90;999.90;;;;;;;26.08;42.49;100853.91;15752812;28;20040;-69
2021/07/03 17:26:49;;;;;;;1999.90;999.90;;;;;;;26.03;42.12;100860.91;15750337;28;20033;-69
2021/07/03 17:34:23;;;;;;;1999.90;999.90;;;;;;;25.94;42.21;100859.88;15750988;28;20412;-68
2021/07/03 17:41:55;;;;;;;1999.90;999.90;;;;;;;25.93;41.89;100861.91;15749460;28;20074;-68
2021/07/03 17:49:30;;;;;;;1999.90;999.90;;;;;;;25.48;43.72;100856.53;15748635;28;20041;-68
2021/07/03 17:57:03;;;;;;;1999.90;999.90;;;;;;;25.59;43.62;100853.50;15748907;28;20036;-67
2021/07/03 18:04:38;;;;;;;1999.90;999.90;;;;;;;25.42;44.96;100849.66;15732467;28;20072;-66
2021/07/03 18:12:11;;;;;;;1999.90;999.90;;;;;;;25.40;43.75;100854.22;15748642;28;20074;-68
2021/07/03 18:19:46;;;;;;;1999.90;999.90;;;;;;;25.02;45.05;100852.31;15746453;28;20460;-68
2021/07/03 18:27:20;;;;;;;1999.90;999.90;;;;;;;25.05;44.19;100856.34;15746809;28;20052;-68
2021/07/03 18:34:53;;;;;;;1999.90;999.90;;;;;;;24.81;45.30;100848.91;15746558;28;20050;-68
2021/07/03 18:42:27;;;;;;;1999.90;999.90;;;;;;;24.50;46.15;100857.44;15739592;28;20045;-68
2021/07/03 18:50:02;;;;;;;1999.90;999.90;;;;;;;24.40;46.33;100861.22;15743516;28;20044;-68
2021/07/03 18:57:34;;;;;;;1999.90;999.90;;;;;;;24.06;47.34;100859.09;15742859;28;20037;-67
2021/07/03 19:05:10;;;;;;;1999.90;999.90;;;;;;;23.75;48.77;100866.69;15741773;28;20665;-68
2021/07/03 19:12:43;;;;;;;1999.90;999.90;;;;;;;23.58;49.89;100864.78;15743089;28;20044;-65
2021/07/03 19:20:17;;;;;;;1999.90;999.90;;;;;;;23.35;49.82;100862.53;15741725;28;20045;-66
2021/07/03 19:27:50;;;;;;;1999.90;999.90;;;;;;;23.26;51.10;100865.03;15743725;28;20047;-66
2021/07/03 19:35:24;;;;;;;1999.90;999.90;;;;;;;23.09;52.31;100863.91;15743612;28;20051;-67
2021/07/03 19:42:57;;;;;;;1999.90;999.90;;;;;;;22.86;52.94;100870.13;15741744;28;20102;-65
2021/07/03 19:50:30;;;;;;;;;;;;;;;22.81;55.65;100873.34;15742144;28;20079;-66
2021/07/03 19:58:03;;;;;;;1999.90;999.90;;;;;;;22.68;56.91;100873.00;15692797;28;20298;-67
2021/07/03 20:05:36;;;;;;;;;;;;;;;22.65;58.91;100870.97;15680321;28;20045;-66
2021/07/03 20:13:09;;;;;;;1999.90;999.90;;;;;;;22.48;58.76;100877.53;15678633;28;20023;-66
2021/07/03 20:20:42;;;;;;;1999.90;999.90;;;;;;;22.52;58.68;100866.16;15678473;28;20041;-66
2021/07/03 20:28:14;;;;;;;1999.90;999.90;;;;;;;22.44;59.55;100854.81;15693190;28;20040;-67
2021/07/03 20:35:48;;;;;;;1999.90;999.90;;;;;;;22.45;59.77;100862.13;15677813;28;20484;-67
2021/07/03 20:43:23;;;;;;;1999.90;999.90;;;;;;;22.50;61.14;100869.41;15693440;28;20033;-66
2021/07/03 20:51:02;;;;;;;1999.90;999.90;;;;;;;22.43;63.42;100861.72;15694494;28;20064;-65
2021/07/03 20:58:34;;;;;;;1999.90;999.90;;;;;;;22.33;61.67;100865.41;15778998;28;20072;-66
2021/07/03 21:06:09;;;;;;;1999.90;999.90;;;;;;;22.25;60.91;100866.63;15766962;28;20044;-67
2021/07/03 21:13:41;;;;;;;1999.90;999.90;;;;;;;22.19;61.18;100863.38;15742707;28;20051;-68
2021/07/03 21:21:17;;;;;;;1999.90;999.90;;;;;;;22.13;61.18;100867.88;15765699;28;20067;-67
2021/07/03 21:28:49;;;;;;;1999.90;999.90;;;;;;;22.08;61.89;100873.16;15746006;28;20087;-63
2021/07/03 21:36:23;;;;;;;1999.90;999.90;;;;;;;21.95;63.53;100864.22;15773967;28;20040;-68
2021/07/03 21:43:55;;;;;;;1999.90;999.90;;;;;;;21.81;64.66;100865.03;15772254;28;20299;-67
2021/07/03 21:51:28;;;;;;;1999.90;999.90;;;;;;;21.63;62.89;100854.91;15760493;28;20044;-68
2021/07/03 21:59:01;;;;;;;1999.90;999.90;;;;;;;21.46;64.08;100845.16;15769593;28;20071;-67
2021/07/03 22:06:35;;;;;;;1999.90;999.90;;;;;;;21.32;64.44;100851.63;15750252;28;20064;-68
2021/07/03 22:14:07;;;;;;;1999.90;999.90;;;;;;;21.07;66.49;100848.72;15747139;28;20049;-65
2021/07/03 22:21:40;;;;;;;1999.90;999.90;;;;;;;20.85;67.46;100844.19;15758229;28;20047;-67
2021/07/03 22:29:12;;;;;;;1999.90;999.90;;;;;;;20.72;67.60;100846.56;15760767;28;20106;-66
2021/07/03 22:36:46;;;;;;;1999.90;999.90;;;;;;;20.53;68.85;100844.88;15755475;28;20215;-65
2021/07/03 22:44:18;;;;;;;1999.90;999.90;;;;;;;20.37;69.35;100833.84;15800010;28;20455;-66
2021/07/03 22:51:51;;;;;;;1999.90;999.90;;;;;;;20.18;69.48;100834.13;15760776;28;20084;-68
2021/07/03 22:59:24;;;;;;;1999.90;999.90;;;;;;;20.04;70.20;100832.03;15732092;28;20141;-67
2021/07/03 23:06:57;;;;;;;1999.90;999.90;;;;;;;19.75;70.39;100833.03;15724805;28;20040;-67
2021/07/03 23:14:29;;;;;;;1999.90;999.90;;;;;;;19.78;71.28;100829.41;15738296;28;20040;-67
2021/07/03 23:22:03;;;;;;;1999.90;999.90;;;;;;;19.69;72.07;100835.41;15737337;28;20078;-67
2021/07/03 23:29:35;;;;;;;1999.90;999.90;;;;;;;19.50;72.40;100827.16;15737318;28;20068;-67
2021/07/03 23:37:09;;;;;;;1999.90;999.90;;;;;;;19.42;72.83;100823.44;15742640;28;20032;-68
2021/07/03 23:44:41;;;;;;;1999.90;999.90;;;;;;;19.42;73.44;100826.28;15741419;28;20044;-68
2021/07/03 23:52:14;;;;;;;1999.90;999.90;;;;;;;19.15;72.70;100819.13;15743060;28;20054;-68
2021/07/03 23:59:46;;;;;;;1999.90;999.90;;;;;;;19.14;73.48;100823.97;15740684;28;20037;-68
